createdAt,value
2018-11-07T00:04:18.535Z,90.09
2018-11-07T00:09:12.924Z,88.58
2018-11-07T00:14:07.490Z,88.85
2018-11-07T00:19:01.894Z,89.13
2018-11-07T00:23:56.518Z,90.58
2018-11-07T00:28:50.981Z,90.72
2018-11-07T00:33:45.587Z,91.91
2018-11-07T00:38:40.120Z,90.83
2018-11-07T00:43:34.620Z,90.39
2018-11-07T00:48:29.025Z,90.18
2018-11-07T00:53:23.512Z,89.88
2018-11-07T00:58:17.939Z,89.86
2018-11-07T01:03:12.352Z,90.17
2018-11-07T01:08:06.816Z,90.40
2018-11-07T01:13:01.333Z,92.26
2018-11-07T01:17:55.768Z,92.06
2018-11-07T01:22:50.204Z,91.96
2018-11-07T01:27:44.659Z,91.27
2018-11-07T01:32:39.131Z,91.92
2018-11-07T01:37:33.584Z,92.23
2018-11-07T01:42:28.019Z,91.90
2018-11-07T01:47:22.494Z,91.23
2018-11-07T01:52:16.947Z,93.46
2018-11-07T01:57:11.358Z,93.49
2018-11-07T02:02:05.910Z,93.66
2018-11-07T02:07:00.318Z,92.25
2018-11-07T02:11:54.738Z,95.07
2018-11-07T02:16:49.186Z,94.67
2018-11-07T02:21:43.755Z,95.03
2018-11-07T02:26:38.175Z,94.14
2018-11-07T02:31:32.576Z,91.89
2018-11-07T02:36:27.100Z,91.76
2018-11-07T02:41:21.617Z,92.25
2018-11-07T02:46:16.105Z,93.78
2018-11-07T02:51:10.523Z,93.62
2018-11-07T02:56:05.093Z,93.51
2018-11-07T03:00:59.514Z,94.95
2018-11-07T03:05:53.951Z,95.73
2018-11-07T03:10:48.455Z,96.04
2018-11-07T03:15:42.845Z,95.35
2018-11-07T03:20:37.308Z,94.82
2018-11-07T03:25:31.739Z,95.17
2018-11-07T03:30:26.164Z,96.07
2018-11-07T03:35:26.669Z,94.99
2018-11-07T03:40:21.091Z,95.74
2018-11-07T03:45:15.546Z,96.38
2018-11-07T03:50:10.016Z,96.01
2018-11-07T03:55:04.436Z,95.99
2018-11-07T03:59:58.849Z,94.78
2018-11-07T04:04:53.292Z,94.40
2018-11-07T04:09:47.747Z,93.84
2018-11-07T04:14:42.186Z,94.27
2018-11-07T04:19:36.644Z,94.93
2018-11-07T04:24:31.094Z,95.97
2018-11-07T04:29:25.524Z,97.29
2018-11-07T04:34:20.055Z,97.50
2018-11-07T04:39:14.854Z,97.66
2018-11-07T04:44:09.703Z,97.87
2018-11-07T04:49:04.204Z,97.71
2018-11-07T04:53:58.609Z,98.17
2018-11-07T04:58:53.096Z,98.20
2018-11-07T05:03:47.539Z,97.97
2018-11-07T05:08:41.974Z,97.93
2018-11-07T05:13:36.492Z,97.19
2018-11-07T05:18:30.904Z,97.04
2018-11-07T05:23:25.292Z,96.09
2018-11-07T05:28:19.720Z,96.16
2018-11-07T05:33:14.184Z,95.39
2018-11-07T05:38:08.682Z,94.88
2018-11-07T05:43:03.101Z,95.01
2018-11-07T05:47:57.550Z,93.98
2018-11-07T05:52:51.933Z,94.75
2018-11-07T05:57:46.343Z,95.38
2018-11-07T06:02:41.158Z,95.67
2018-11-07T06:07:35.924Z,94.36
2018-11-07T06:12:30.323Z,95.25
2018-11-07T06:17:24.793Z,94.16
2018-11-07T06:22:19.216Z,93.74
2018-11-07T06:27:13.741Z,93.81
2018-11-07T06:32:08.215Z,93.78
2018-11-07T06:37:02.694Z,93.69
2018-11-07T06:41:57.102Z,93.49
2018-11-07T06:46:51.576Z,94.35
2018-11-07T06:51:46.015Z,94.33
2018-11-07T06:56:40.515Z,94.54
2018-11-07T07:01:35.190Z,94.86
2018-11-07T07:06:29.682Z,94.13
2018-11-07T07:11:24.423Z,94.21
2018-11-07T07:16:24.484Z,93.52
2018-11-07T07:21:31.096Z,93.12
2018-11-07T07:26:26.035Z,93.09
2018-11-07T07:31:20.504Z,92.32
2018-11-07T07:36:15.201Z,92.68
2018-11-07T07:41:09.791Z,93.13
2018-11-07T07:46:04.264Z,93.18
2018-11-07T07:50:58.801Z,92.68
2018-11-07T07:55:53.381Z,91.96
2018-11-07T08:00:47.879Z,90.59
2018-11-07T08:05:42.316Z,89.43
2018-11-07T08:10:37.146Z,89.31
2018-11-07T08:15:32.718Z,90.50
2018-11-07T08:20:27.415Z,91.04
2018-11-07T08:25:21.939Z,90.55
2018-11-07T08:30:18.805Z,90.02
2018-11-07T08:35:15.352Z,89.64
2018-11-07T08:40:19.617Z,91.16
2018-11-07T08:45:14.744Z,89.49
2018-11-07T08:50:12.455Z,89.66
2018-11-07T08:55:32.736Z,88.85
2018-11-07T09:00:44.766Z,89.49
2018-11-07T09:05:59.601Z,87.32
2018-11-07T09:11:19.483Z,86.56
2018-11-07T09:16:14.811Z,85.39
2018-11-07T09:21:09.897Z,84.35
2018-11-07T09:26:05.929Z,84.64
2018-11-07T09:31:01.970Z,83.91
2018-11-07T09:35:56.431Z,83.92
2018-11-07T09:40:52.203Z,83.51
2018-11-07T09:45:47.406Z,83.27
2018-11-07T09:50:41.948Z,82.53
2018-11-07T09:55:47.513Z,81.27
2018-11-07T10:00:42.290Z,80.18
2018-11-07T10:05:37.086Z,78.91
2018-11-07T10:10:31.605Z,78.68
2018-11-07T10:15:26.885Z,78.60
2018-11-07T10:20:29.360Z,76.89
2018-11-07T10:25:24.388Z,76.34
2018-11-07T10:30:22.272Z,74.88
2018-11-07T10:35:17.821Z,74.09
2018-11-07T10:40:15.397Z,73.89
2018-11-07T10:45:11.612Z,72.55
2018-11-07T10:50:08.428Z,71.75
2018-11-07T10:55:03.742Z,70.47
2018-11-07T10:59:58.659Z,71.17
2018-11-07T11:04:53.292Z,71.57
2018-11-07T11:09:47.912Z,70.48
2018-11-07T11:14:44.028Z,70.40
2018-11-07T11:19:38.674Z,70.51
2018-11-07T11:24:34.761Z,68.93
2018-11-07T11:29:31.338Z,67.97
2018-11-07T11:34:25.901Z,67.47
2018-11-07T11:39:23.563Z,66.36
2018-11-07T11:44:27.230Z,66.71
2018-11-07T11:49:28.874Z,65.38
2018-11-07T11:54:33.703Z,66.03
2018-11-07T11:59:32.781Z,66.09
2018-11-07T12:04:27.371Z,64.63
2018-11-07T12:09:21.885Z,65.10
2018-11-07T12:14:16.442Z,65.20
2018-11-07T12:19:12.503Z,65.38
2018-11-07T12:24:11.973Z,66.98
2018-11-07T12:29:07.015Z,66.64
2018-11-07T12:34:07.555Z,66.44
2018-11-07T12:39:02.458Z,67.48
2018-11-07T12:43:57.261Z,64.99
2018-11-07T12:48:52.626Z,65.81
2018-11-07T12:53:47.257Z,65.66
2018-11-07T12:58:41.760Z,65.88
2018-11-07T13:03:36.300Z,65.19
2018-11-07T13:08:31.747Z,64.78
2018-11-07T13:13:26.285Z,64.04
2018-11-07T13:18:20.844Z,64.68
2018-11-07T13:23:15.421Z,64.95
2018-11-07T13:28:10.167Z,64.41
2018-11-07T13:33:06.889Z,63.79
2018-11-07T13:38:01.713Z,63.56
2018-11-07T13:42:55.955Z,64.15
2018-11-07T13:47:53.999Z,62.73
2018-11-07T13:52:49.853Z,63.87
2018-11-07T13:57:45.923Z,63.30
2018-11-07T14:02:44.466Z,63.61
2018-11-07T14:07:42.748Z,64.00
2018-11-07T14:12:38.456Z,64.38
2018-11-07T14:17:35.825Z,64.48
2018-11-07T14:22:30.463Z,64.78
2018-11-07T14:27:25.034Z,64.18
2018-11-07T14:32:21.338Z,65.55
2018-11-07T14:37:15.925Z,65.17
2018-11-07T14:42:10.808Z,64.87
2018-11-07T14:47:05.713Z,65.30
2018-11-07T14:52:00.157Z,66.32
2018-11-07T14:56:54.748Z,66.98
2018-11-07T15:01:49.714Z,68.44
2018-11-07T15:06:46.444Z,69.09
2018-11-07T15:11:41.075Z,69.75
2018-11-07T15:16:35.649Z,70.36
2018-11-07T15:21:30.288Z,71.57
2018-11-07T15:26:28.403Z,72.62
2018-11-07T15:31:26.221Z,72.54
2018-11-07T15:36:25.505Z,72.97
2018-11-07T15:41:20.120Z,72.87
2018-11-07T15:46:14.631Z,72.14
2018-11-07T15:51:11.841Z,72.62
2018-11-07T15:56:07.112Z,72.20
2018-11-07T16:01:01.719Z,70.99
2018-11-07T16:05:56.869Z,70.62
2018-11-07T16:10:51.293Z,69.67
2018-11-07T16:15:45.952Z,68.93
2018-11-07T16:20:40.422Z,70.34
2018-11-07T16:25:35.045Z,70.20
2018-11-07T16:30:29.736Z,69.76
2018-11-07T16:35:24.513Z,70.29
2018-11-07T16:40:19.518Z,70.61
2018-11-07T16:45:17.916Z,71.25
2018-11-07T16:50:13.642Z,69.91
2018-11-07T16:55:18.453Z,69.57
2018-11-07T17:00:16.873Z,70.46
2018-11-07T17:05:12.328Z,71.37
2018-11-07T17:10:08.385Z,72.73
2018-11-07T17:15:02.857Z,74.47
2018-11-07T17:19:57.298Z,74.46
2018-11-07T17:24:51.707Z,75.11
2018-11-07T17:29:46.207Z,75.62
2018-11-07T17:34:40.662Z,76.64
2018-11-07T17:39:35.077Z,76.97
2018-11-07T17:44:29.525Z,76.63
2018-11-07T17:49:24.117Z,77.02
2018-11-07T17:54:18.547Z,78.41
2018-11-07T17:59:12.956Z,79.48
2018-11-07T18:04:07.548Z,79.41
2018-11-07T18:09:01.988Z,79.37
2018-11-07T18:13:56.422Z,80.16
2018-11-07T18:18:50.888Z,80.10
2018-11-07T18:23:45.304Z,79.27
2018-11-07T18:28:39.744Z,78.85
2018-11-07T18:33:34.229Z,79.21
2018-11-07T18:38:28.662Z,79.65
2018-11-07T18:43:23.135Z,80.05
2018-11-07T18:48:17.544Z,80.10
2018-11-07T18:53:12.016Z,80.70
2018-11-07T18:58:07.077Z,81.25
2018-11-07T19:03:01.528Z,81.09
2018-11-07T19:07:55.952Z,81.81
2018-11-07T19:12:51.052Z,81.30
2018-11-07T19:17:46.503Z,81.89
2018-11-07T19:22:40.957Z,82.61
2018-11-07T19:27:35.600Z,82.15
2018-11-07T19:32:30.029Z,82.36
2018-11-07T19:37:24.491Z,81.84
2018-11-07T19:42:19.000Z,82.56
2018-11-07T19:47:13.461Z,82.04
2018-11-07T19:52:07.924Z,81.94
2018-11-07T19:57:02.360Z,82.22
2018-11-07T20:01:56.801Z,82.71
2018-11-07T20:06:51.225Z,82.86
2018-11-07T20:11:45.700Z,83.64
2018-11-07T20:16:40.201Z,83.94
2018-11-07T20:21:34.591Z,83.89
2018-11-07T20:26:29.021Z,83.75
2018-11-07T20:31:23.456Z,83.44
2018-11-07T20:36:18.007Z,83.27
2018-11-07T20:41:12.371Z,83.45
2018-11-07T20:46:07.072Z,83.43
2018-11-07T20:51:01.513Z,83.17
2018-11-07T20:55:55.994Z,83.56
2018-11-07T21:00:50.458Z,83.71
2018-11-07T21:05:44.966Z,83.17
2018-11-07T21:10:39.404Z,83.90
2018-11-07T21:15:33.833Z,83.87
2018-11-07T21:20:28.324Z,84.01
2018-11-07T21:25:22.810Z,84.64
2018-11-07T21:30:17.333Z,84.41
2018-11-07T21:35:11.874Z,85.12
2018-11-07T21:40:09.518Z,85.12
2018-11-07T21:45:04.005Z,84.51
2018-11-07T21:49:58.456Z,84.37
2018-11-07T21:54:52.984Z,84.81
2018-11-07T21:59:47.308Z,85.03
2018-11-07T22:04:41.712Z,85.09
2018-11-07T22:09:36.134Z,85.61
2018-11-07T22:14:30.557Z,85.76
2018-11-07T22:19:25.115Z,85.60
2018-11-07T22:24:19.626Z,85.57
2018-11-07T22:29:14.041Z,86.14
2018-11-07T22:34:08.477Z,86.55
2018-11-07T22:39:02.948Z,86.72
2018-11-07T22:43:57.360Z,87.04
2018-11-07T22:48:51.764Z,87.69
2018-11-07T22:53:46.181Z,88.39
2018-11-07T22:58:40.609Z,88.92
2018-11-07T23:03:35.113Z,88.12
2018-11-07T23:08:29.497Z,88.64
2018-11-07T23:13:23.953Z,89.20
2018-11-07T23:18:19.957Z,89.03
2018-11-07T23:23:14.516Z,89.58
2018-11-07T23:28:08.954Z,89.38
2018-11-07T23:33:03.360Z,89.39
2018-11-07T23:37:57.828Z,90.19
2018-11-07T23:42:52.250Z,90.59
2018-11-07T23:47:46.677Z,90.23
2018-11-07T23:52:47.435Z,92.42
2018-11-07T23:57:41.839Z,92.71
